Nearby METAR Reports

Sorted by Distance from Carson Valley Weather Station - Minden, Nevada

 

KMEV - Minden, Nevada, USA
Distance from station: SSW 3mi, 5km
Updated: Tue, 27-Sep-2022 1:55pm PDT
Clear
Clear
 Wind from S
Wind: S 23 mph , 37 km/h
Temperature: 88°F , 31°C
Dew Point: 28°F , -2°C
Humidity: 12%
Barometer: 30.10 inHg , 1019.3 hPa
Clouds: Clear
Visibility: 10 miles , 16 km
2022/09/27 20:55 KMEV 272055Z AUTO 19020KT 10SM CLR 31/M02 A3010 RMK AO2
KCXP - Carson City, Nevada, USA
Distance from station: N 10mi, 16km
Updated: Tue, 27-Sep-2022 1:55pm PDT
Clear
Clear
 Wind from S
Wind: S 12 mph , 19 km/h, Gust: 23 mph , 37 km/h
Temperature: 90°F , 32°C
Dew Point: 23°F , -5°C
Humidity: 9%
Barometer: 30.11 inHg , 1019.6 hPa
Clouds: Clear
Visibility: 10 miles , 16 km
2022/09/27 20:55 KCXP 272055Z AUTO 18010G20KT 140V200 10SM CLR 32/M05 A3011 RMK AO2
 
KTVL - South Lake Tahoe, California, USA
Distance from station: WSW 18mi, 29km
Updated: Tue, 27-Sep-2022 1:53pm PDT
Clear
Clear
 Wind from S
Wind: S 17 mph , 28 km/h, Gust: 28 mph , 44 km/h
Temperature: 75°F , 24°C
Dew Point: 36°F , 2°C
Humidity: 24%
Barometer: 30.22 inHg , 1023.4 hPa
Clouds: Clear
Visibility: 10 miles , 16 km
2022/09/27 20:53 KTVL 272053Z AUTO 19015G24KT 10SM CLR 24/02 A3022 RMK AO2 SLP179 T02440017 58005
KTRK - Truckee Tahoe, California, USA
Distance from station: NW 29mi, 46km
Updated: Tue, 27-Sep-2022 1:50pm PDT
Clear
Clear
 Wind from WSW
Wind: WSW 14 mph , 22 km/h, Gust: 22 mph , 35 km/h
Temperature: 79°F , 26°C
Dew Point: 37°F , 3°C
Humidity: 23%
Barometer: 30.21 inHg , 1023 hPa
Clouds: Clear
Visibility: 10 miles , 16 km
2022/09/27 20:50 KTRK 272050Z 24012G19KT 10SM CLR 26/03 A3021
 
KRNO - Reno, Nevada, USA
Distance from station: N 32mi, 51km
Updated: Tue, 27-Sep-2022 1:55pm PDT
Few Clouds
Few Clouds
 Wind from varies
Wind: varies 5 mph , 7 km/h, Gust: 17 mph , 28 km/h
Temperature: 88°F , 31°C
Dew Point: 36°F , 2°C
Humidity: 16%
Barometer: 30.07 inHg , 1018.3 hPa
Clouds: Few Clouds
Visibility: 10 miles , 16 km
Cloud details: Few Clouds 10000 ft
2022/09/27 20:55 KRNO 272055Z VRB04G15KT 10SM FEW100 31/02 A3007 RMK AO2 SLP126 T03110022 58019
KRTS - Reno/Stead, Nevada, USA
Distance from station: NNW 44mi, 71km
Updated: Tue, 27-Sep-2022 1:55pm PDT
Clear
Clear
 Wind from S
Wind: S 6 mph , 9 km/h, Gust: 21 mph , 33 km/h
Temperature: 84°F , 29°C
Dew Point: 25°F , -4°C
Humidity: 11%
Barometer: 30.13 inHg , 1020.3 hPa
Clouds: Clear
Visibility: 10 miles , 16 km
2022/09/27 20:55 KRTS 272055Z AUTO 19005G18KT 10SM CLR 29/M04 A3013 RMK AO2
 
KBAN - Bridgeport(Mcmwt, California, USA
Distance from station: SSE 49mi, 79km
Updated: Tue, 27-Sep-2022 1:52pm PDT
Few Clouds
Few Clouds
 Wind from S
Wind: S 10 mph , 17 km/h, Gust: 24 mph , 39 km/h
Temperature: 77°F , 25°C
Dew Point: 28°F , -2°C
Humidity: 17%
Barometer: 30.25 inHg , 1024.4 hPa
Clouds: Few Clouds
Visibility: 10 miles , 16 km
Cloud details: Few Clouds 9500 ft
2022/09/27 20:52 KBAN 272052Z AUTO 19009G21KT 150V220 10SM FEW095 25/M02 A3025 RMK AO2 SLP148 T02501017 58006 $
KBLU - Emigrant Gap, California, USA
Distance from station: WNW 55mi, 89km
Updated: Tue, 27-Sep-2022 1:52pm PDT
Clear
Clear
 Wind from S
Wind: S 15 mph , 24 km/h, Gust: 24 mph , 39 km/h
Temperature: 75°F , 24°C
Dew Point: 45°F , 7°C
Humidity: 34%
Barometer: 30.21 inHg , 1023 hPa
Clouds: Clear
Visibility: 10 miles , 16 km
2022/09/27 20:52 KBLU 272052Z AUTO 17013G21KT 10SM CLR 24/07 A3021 RMK AO2 SLP129 T02390067 58004
 
KPVF - Placerville, California, USA
Distance from station: WSW 60mi, 96km
Updated: Tue, 27-Sep-2022 1:35pm PDT
Clear
Clear
 Wind from SSW
Wind: SSW 7 mph , 11 km/h
Temperature: 84°F , 29°C
Dew Point: 46°F , 8°C
Humidity: 27%
Barometer: 30.06 inHg , 1017.9 hPa
Clouds: Clear
Visibility: 10 miles , 16 km
2022/09/27 20:35 KPVF 272035Z AUTO 21006KT 10SM CLR 29/08 A3006 RMK AO1
KNFL - Fallon Nas, Nevada, USA
Distance from station: ENE 61mi, 97km
Updated: Tue, 27-Sep-2022 12:56pm PDT
Few Clouds
Few Clouds
 Wind from varies
Wind: varies 7 mph , 11 km/h
Temperature: 88°F , 31°C
Dew Point: 28°F , -2°C
Humidity: 12%
Barometer: 30.07 inHg , 1018.3 hPa
Clouds: Few Clouds
Visibility: 10 miles , 16 km
Cloud details: Few Clouds 9000 ft
Few Clouds 12000 ft
2022/09/27 19:56 KNFL 271956Z VRB06KT 10SM FEW090 FEW120 31/M02 A3007 RMK AO2 SLP150 T03111017
 
KHTH - Hawthorne, Nevada, USA
Distance from station: ESE 68mi, 109km
Updated: Tue, 27-Sep-2022 1:55pm PDT
Clear
Clear
 Wind from ENE
Wind: ENE 7 mph , 11 km/h
Temperature: 88°F , 31°C
Dew Point: 28°F , -2°C
Humidity: 12%
Barometer: 30.06 inHg , 1017.9 hPa
Clouds: Clear
Visibility: 10 miles , 16 km
2022/09/27 20:55 KHTH 272055Z AUTO 06006KT 10SM CLR 31/M02 A3006 RMK A01
KGOO - Grass Valley, California, USA
Distance from station: W 70mi, 112km
Updated: Tue, 27-Sep-2022 1:55pm PDT
Clear
Clear
 Wind from SW
Wind: SW 6 mph , 9 km/h
Temperature: 88°F , 31°C
Dew Point: 48°F , 9°C
Humidity: 25%
Barometer: 30.06 inHg , 1017.9 hPa
Clouds: Clear
Visibility: 10 miles , 16 km
2022/09/27 20:55 KGOO 272055Z AUTO 22005KT 10SM CLR 31/09 A3006 RMK A01
 
KAUN - Auburn Muni, California, USA
Distance from station: W 73mi, 118km
Updated: Tue, 27-Sep-2022 1:35pm PDT
Clear
Clear
 Wind from W
Wind: W 9 mph , 15 km/h
Temperature: 84°F , 29°C
Dew Point: 46°F , 8°C
Humidity: 27%
Barometer: 29.99 inHg , 1015.6 hPa
Clouds: Clear
Visibility: 10 miles , 16 km
2022/09/27 20:35 KAUN 272035Z AUTO 26008KT 10SM CLR 29/08 A2999 RMK A01
KO22 - Columbia, California, USA
Distance from station: SSW 79mi, 127km
Updated: Tue, 27-Sep-2022 1:55pm PDT
Clear
Clear
 Wind from S
Wind: S 7 mph , 11 km/h
Temperature: 90°F , 32°C
Dew Point: 48°F , 9°C
Humidity: 24%
Barometer: 30.00 inHg , 1015.9 hPa
Clouds: Clear
Visibility: 10 miles , 16 km
2022/09/27 20:55 KO22 272055Z AUTO 17006KT 10SM CLR 32/09 A3000 RMK A01
 
KLHM - Lincoln, California, USA
Distance from station: W 88mi, 141km
Updated: Tue, 27-Sep-2022 1:35pm PDT
Clear
Clear
 Wind from SSW
Wind: SSW 10 mph , 17 km/h
Temperature: 82°F , 28°C
Dew Point: 45°F , 7°C
Humidity: 26%
Barometer: 29.93 inHg , 1013.5 hPa
Clouds: Clear
Visibility: 10 miles , 16 km
2022/09/27 20:35 KLHM 272035Z AUTO 21009KT 10SM CLR 28/07 A2993 RMK AO1
KBAB - Beale Afb/Marysv, California, USA
Distance from station: W 91mi, 147km
Updated: Tue, 27-Sep-2022 1:56pm PDT
Clear
Clear
 Wind from SSW
Wind: SSW 6 mph , 9 km/h
Temperature: 82°F , 28°C
Dew Point: 52°F , 11°C
Humidity: 35%
Barometer: 29.92 inHg , 1013.2 hPa
Clouds: Clear
Visibility: 10 miles , 16 km
2022/09/27 20:56 KBAB 272056Z 21005KT 10SM CLR 28/11 A2992 RMK AO2A SLP131 SLP ESTMD T02790110 57015 $
 
KMHR - Mather Field, California, USA
Distance from station: WSW 91mi, 147km
Updated: Tue, 27-Sep-2022 1:55pm PDT
Clear
Clear
 Wind from varies
Wind: varies 7 mph , 11 km/h
Temperature: 81°F , 27°C
Dew Point: 46°F , 8°C
Humidity: 30%
Barometer: 29.92 inHg , 1013.2 hPa
Clouds: Clear
Visibility: 10 miles , 16 km
2022/09/27 20:55 KMHR 272055Z AUTO VRB06KT 10SM CLR 27/08 A2992 RMK A01
KLOL - Lovelock, Nevada, USA
Distance from station: NE 94mi, 151km
Updated: Tue, 27-Sep-2022 1:53pm PDT
Clear
Clear
 Wind from SW
Wind: SW 9 mph , 15 km/h
Temperature: 88°F , 31°C
Dew Point: 34°F , 1°C
Humidity: 15%
Barometer: 30.06 inHg , 1017.9 hPa
Clouds: Clear
Visibility: 10 miles , 16 km
2022/09/27 20:53 KLOL 272053Z AUTO 23008KT 10SM CLR 31/01 A3006 RMK AO2 SLP137 T03110011 58017
 
KMCC - Mcclellan Afb, California, USA
Distance from station: WSW 94mi, 151km
Updated: Tue, 27-Sep-2022 1:55pm PDT

 Wind from S
Wind: S 8 mph , 13 km/h
Temperature: 81°F , 27°C
Dew Point: 48°F , 9°C
Humidity: 32%
Barometer: 29.93 inHg , 1013.5 hPa
Visibility: 10 miles , 16 km
2022/09/27 20:55 KMCC 272055Z AUTO 19007KT 160V230 10SM 27/09 A2993 RMK AO2
KMYV - Marysville, California, USA
Distance from station: W 99mi, 159km
Updated: Tue, 27-Sep-2022 1:53pm PDT
Clear
Clear
 Wind from SW
Wind: SW 8 mph , 13 km/h
Temperature: 82°F , 28°C
Dew Point: 52°F , 11°C
Humidity: 35%
Barometer: 29.93 inHg , 1013.5 hPa
Clouds: Clear
Visibility: 10 miles , 16 km
2022/09/27 20:53 KMYV 272053Z AUTO 23007KT 10SM CLR 28/11 A2993 RMK AO2 SLP138 T02830111 58014
 
KSVE - Susanville Muni, California, USA
Distance from station: NNW 102mi, 164km
Updated: Tue, 27-Sep-2022 1:55pm PDT
Clear
Clear
 Wind from SW
Wind: SW 15 mph , 24 km/h, Gust: 21 mph , 33 km/h
Temperature: 84°F , 29°C
Dew Point: 43°F , 6°C
Humidity: 23%
Barometer: 30.07 inHg , 1018.3 hPa
Clouds: Clear
Visibility: 10 miles , 16 km
2022/09/27 20:55 KSVE 272055Z AUTO 23013G18KT 10SM CLR 29/06 A3007 RMK AO2
KSAC - Sacramento, California, USA
Distance from station: WSW 103mi, 165km
Updated: Tue, 27-Sep-2022 1:53pm PDT
Clear
Clear
 Wind from SW
Wind: SW 7 mph , 11 km/h
Temperature: 79°F , 26°C
Dew Point: 52°F , 11°C
Humidity: 39%
Barometer: 29.94 inHg , 1013.9 hPa
Clouds: Clear
Visibility: 10 miles , 16 km
2022/09/27 20:53 KSAC 272053Z 22006KT 10SM CLR 26/11 A2994 RMK AO2 SLP137 T02610106 57015
 
KSMF - Sacramento/Metro, California, USA
Distance from station: WSW 104mi, 167km
Updated: Tue, 27-Sep-2022 1:53pm PDT
Few Clouds
Few Clouds
 Wind from SSE
Wind: SSE 5 mph , 7 km/h
Temperature: 84°F , 29°C
Dew Point: 48°F , 9°C
Humidity: 29%
Barometer: 29.92 inHg , 1013.2 hPa
Clouds: Few Clouds
Visibility: 10 miles , 16 km
Cloud details: Few Clouds 25000 ft
2022/09/27 20:53 KSMF 272053Z 16004KT 10SM FEW250 29/09 A2992 RMK AO2 SLP132 T02890089 58015
KOVE - Oroville, California, USA
Distance from station: WNW 106mi, 171km
Updated: Tue, 27-Sep-2022 1:53pm PDT
Clear
Clear
 Wind from SSE
Wind: SSE 7 mph , 11 km/h
Temperature: 84°F , 29°C
Dew Point: 54°F , 12°C
Humidity: 35%
Barometer: 29.94 inHg , 1013.9 hPa
Clouds: Clear
Visibility: 10 miles , 16 km
2022/09/27 20:53 KOVE 272053Z AUTO 16006KT 10SM CLR 29/12 A2994 RMK AO2 SLP139 T02890117 58014
 
KMMH - Mammoth/June Lak, California, USA
Distance from station: SSE 110mi, 177km
Updated: Tue, 27-Sep-2022 1:36pm PDT
Clear
Clear
 Wind from SSW
Wind: SSW 7 mph , 11 km/h, Gust: 20 mph , 31 km/h
Temperature: 77°F , 25°C
Dew Point: 27°F , -3°C
Humidity: 15%
Barometer: 30.32 inHg , 1026.8 hPa
Clouds: Clear
Visibility: 10 miles , 16 km
2022/09/27 20:36 KMMH 272036Z AUTO 21006G17KT 10SM CLR 25/M03 A3032 RMK AO2
KSCK - Stockton, California, USA
Distance from station: SW 114mi, 183km
Updated: Tue, 27-Sep-2022 1:55pm PDT
Clear
Clear
 Wind from NW
Wind: NW 9 mph , 15 km/h
Temperature: 86°F , 30°C
Dew Point: 48°F , 9°C
Humidity: 27%
Barometer: 29.93 inHg , 1013.5 hPa
Clouds: Clear
Visibility: 10 miles , 16 km
2022/09/27 20:55 KSCK 272055Z 32008KT 10SM CLR 30/09 A2993 RMK AO2 SLP135 T03000094 56017
 
KEDU - Davis, California, USA
Distance from station: WSW 116mi, 187km
Updated: Thu, 22-Sep-2022 7:00pm PDT
NOT Current
Clear
Clear
 Wind from calm
Wind: Calm
Temperature: 75°F , 24°C
Dew Point: 50°F , 10°C
Humidity: 41%
Barometer: 29.96 inHg , 1014.6 hPa
Clouds: Clear
Visibility: 10 miles , 16 km
2022/09/23 02:00 KEDU 230200Z AUTO 00000KT 10SM CLR 24/10 A2996 RMK AO1
KMOD - Modesto, California, USA
Distance from station: SW 119mi, 191km
Updated: Tue, 27-Sep-2022 1:53pm PDT
Clear
Clear
 Wind from NW
Wind: NW 8 mph , 13 km/h
Temperature: 84°F , 29°C
Dew Point: 45°F , 7°C
Humidity: 25%
Barometer: 29.92 inHg , 1013.2 hPa
Clouds: Clear
Visibility: 10 miles , 16 km
2022/09/27 20:53 KMOD 272053Z 31007KT 10SM CLR 29/07 A2992 RMK AO2 SLP130 T02890072 58017
 
KMER - Merced/Castle Af, California, USA
Distance from station: SSW 123mi, 198km
Updated: Tue, 27-Sep-2022 1:53pm PDT
Clear
Clear
 Wind from NW
Wind: NW 5 mph , 7 km/h
Temperature: 93°F , 34°C
Dew Point: 46°F , 8°C
Humidity: 20%
Barometer: 29.92 inHg , 1013.2 hPa
Clouds: Clear
Visibility: 7 miles , 11 km
2022/09/27 20:53 KMER 272053Z 31004KT 7SM CLR 34/08 A2992
KCIC - Chico Municipal, California, USA
Distance from station: WNW 124mi, 199km
Updated: Tue, 27-Sep-2022 1:53pm PDT
Clear
Clear
 Wind from S
Wind: S 9 mph , 15 km/h
Temperature: 84°F , 29°C
Dew Point: 50°F , 10°C
Humidity: 31%
Barometer: 29.94 inHg , 1013.9 hPa
Clouds: Clear
Visibility: 10 miles , 16 km
2022/09/27 20:53 KCIC 272053Z 18008KT 10SM CLR 29/10 A2994
 
KMCE - Merced, California, USA
Distance from station: SSW 128mi, 207km
Updated: Tue, 27-Sep-2022 1:53pm PDT
Clear
Clear
 Wind from varies
Wind: varies 5 mph , 7 km/h
Temperature: 91°F , 33°C
Dew Point: 48°F , 9°C
Humidity: 23%
Barometer: 29.91 inHg , 1012.9 hPa
Clouds: Clear
Visibility: 10 miles , 16 km
2022/09/27 20:53 KMCE 272053Z AUTO VRB04KT 10SM CLR 33/09 A2991 RMK AO2 SLP126 T03280089 58016
KVCB - Vacaville, California, USA
Distance from station: WSW 128mi, 207km
Updated: Tue, 27-Sep-2022 1:53pm PDT
Clear
Clear
 Wind from varies
Wind: varies 5 mph , 7 km/h
Temperature: 82°F , 28°C
Dew Point: 48°F , 9°C
Humidity: 30%
Barometer: 29.94 inHg , 1013.9 hPa
Clouds: Clear
Visibility: 10 miles , 16 km
2022/09/27 20:53 KVCB 272053Z AUTO VRB04KT 10SM CLR 28/09 A2994 RMK AO2 SLP136 T02830089 58013
 
KSUU - Travis Afb/Fairf, California, USA
Distance from station: WSW 130mi, 209km
Updated: Tue, 27-Sep-2022 1:55pm PDT
Clear
Clear
 Wind from SW
Wind: SW 15 mph , 24 km/h
Temperature: 79°F , 26°C
Dew Point: 48°F , 9°C
Humidity: 34%
Barometer: 29.93 inHg , 1013.5 hPa
Clouds: Clear
Visibility: 10 miles , 16 km
2022/09/27 20:55 KSUU 272055Z AUTO 23013KT 10SM CLR 26/09 A2993 RMK AO2 SLP142 T02610090 $
KBIH - Bishop, California, USA
Distance from station: SE 137mi, 221km
Updated: Tue, 27-Sep-2022 1:56pm PDT
Clear
Clear
 Wind from S
Wind: S 6 mph , 9 km/h
Temperature: 88°F , 31°C
Dew Point: 34°F , 1°C
Humidity: 15%
Barometer: 30.08 inHg , 1018.6 hPa
Clouds: Clear
Visibility: 10 miles , 16 km
2022/09/27 20:56 KBIH 272056Z AUTO 19005KT 10SM CLR 31/01 A3008 RMK AO2 SLP135 T03110006 58019
 
KMAE - Madera, California, USA
Distance from station: S 144mi, 231km
Updated: Tue, 27-Sep-2022 1:53pm PDT
Clear
Clear
 Wind from WNW
Wind: WNW 9 mph , 15 km/h
Temperature: 91°F , 33°C
Dew Point: 54°F , 12°C
Humidity: 28%
Barometer: 29.92 inHg , 1013.2 hPa
Clouds: Clear
Visibility: 10 miles , 16 km
2022/09/27 20:53 KMAE 272053Z AUTO 30008KT 10SM CLR 33/12 A2992 RMK AO2 SLP127 T03280117 58015
KCCR - Concord, California, USA
Distance from station: WSW 145mi, 233km
Updated: Tue, 27-Sep-2022 1:53pm PDT
Clear
Clear
 Wind from WNW
Wind: WNW 14 mph , 22 km/h
Temperature: 79°F , 26°C
Dew Point: 48°F , 9°C
Humidity: 34%
Barometer: 29.95 inHg , 1014.2 hPa
Clouds: Clear
Visibility: 10 miles , 16 km
2022/09/27 20:53 KCCR 272053Z 29012KT 10SM CLR 26/09 A2995 RMK AO2 SLP130 T02560089 58017
 
KLVK - Livermore, California, USA
Distance from station: SW 146mi, 236km
Updated: Tue, 27-Sep-2022 1:53pm PDT
Clear
Clear
 Wind from varies
Wind: varies 6 mph , 9 km/h
Temperature: 79°F , 26°C
Dew Point: 52°F , 11°C
Humidity: 39%
Barometer: 29.95 inHg , 1014.2 hPa
Clouds: Clear
Visibility: 10 miles , 16 km
2022/09/27 20:53 KLVK 272053Z VRB05KT 10SM CLR 26/11 A2995 RMK AO2 SLP139 T02610111 58019
KAPC - Napa, California, USA
Distance from station: WSW 150mi, 241km
Updated: Tue, 27-Sep-2022 1:54pm PDT
Clear
Clear
 Wind from SSW
Wind: SSW 9 mph , 15 km/h
Temperature: 72°F , 22°C
Dew Point: 54°F , 12°C
Humidity: 53%
Barometer: 29.97 inHg , 1014.9 hPa
Clouds: Clear
Visibility: 10 miles , 16 km
2022/09/27 20:54 KAPC 272054Z 20008KT 10SM CLR 22/12 A2997 RMK AO2 SLP142 T02170122 57016
 
KRBL - Red Bluff, California, USA
Distance from station: WNW 155mi, 249km
Updated: Tue, 27-Sep-2022 1:54pm PDT
Clear
Clear
 Wind from S
Wind: S 9 mph , 15 km/h
Temperature: 88°F , 31°C
Dew Point: 48°F , 9°C
Humidity: 25%
Barometer: 29.92 inHg , 1013.2 hPa
Clouds: Clear
Visibility: 10 miles , 16 km
2022/09/27 20:54 KRBL 272054Z AUTO 17008KT 10SM CLR 31/09 A2992 RMK AO2 SLP128 T03060094 58015
KFAT - Fresno, California, USA
Distance from station: S 156mi, 251km
Updated: Tue, 27-Sep-2022 1:53pm PDT
Few Clouds
Few Clouds
 Wind from WNW
Wind: WNW 9 mph , 15 km/h
Temperature: 93°F , 34°C
Dew Point: 54°F , 12°C
Humidity: 26%
Barometer: 29.91 inHg , 1012.9 hPa
Clouds: Few Clouds
Visibility: 10 miles , 16 km
Cloud details: Few Clouds 8000 ft
Few Clouds 20000 ft
2022/09/27 20:53 KFAT 272053Z 30008KT 10SM FEW080 FEW200 34/12 A2991 RMK AO2 SLP123 CU OMTNS DSNT N-E-SE MTNS OBSC FU HZ DSNT N-E-S T03390117 58016
 
KTPH - Tonopah, Nevada, USA
Distance from station: ESE 158mi, 254km
Updated: Tue, 27-Sep-2022 1:56pm PDT
Clear
Clear
 Wind from SE
Wind: SE 9 mph , 15 km/h, Gust: 21 mph , 33 km/h
Temperature: 84°F , 29°C
Dew Point: 21°F , -6°C
Humidity: 10%
Barometer: 30.19 inHg , 1022.4 hPa
Clouds: Clear
Visibility: 10 miles , 16 km
2022/09/27 20:56 KTPH 272056Z AUTO 13008G18KT 10SM CLR 29/M06 A3019 RMK AO2 SLP155 T02891061 58018
KFCH - Fresno Chandler, California, USA
Distance from station: S 161mi, 258km
Updated: Sun, 06-Mar-2022 2:40pm PST
NOT Current
Partly cloudy
Partly cloudy
 Wind from calm
Wind: Calm
Temperature: 57°F , 14°C
Dew Point: 36°F , 2°C
Humidity: 44%
Barometer: 30.26 inHg , 1024.7 hPa
Clouds: Partly cloudy
Visibility: 10 miles , 16 km
Cloud details: Partly cloudy 5000 ft
2022/03/06 22:40 KFCH 062240Z AUTO 00000KT 10SM SCT050 14/02 A3026 RMK A01
 
KHWD - Hayward, California, USA
Distance from station: SW 161mi, 259km
Updated: Tue, 27-Sep-2022 1:54pm PDT
Clear
Clear
 Wind from W
Wind: W 8 mph , 13 km/h
Temperature: 68°F , 20°C
Dew Point: 54°F , 12°C
Humidity: 60%
Barometer: 29.99 inHg , 1015.6 hPa
Clouds: Clear
Visibility: 10 miles , 16 km
2022/09/27 20:54 KHWD 272054Z 28007KT 10SM CLR 20/12 A2999 RMK AO2 SLP165 T02000117 58010
KOAK - Oakland, California, USA
Distance from station: SW 164mi, 264km
Updated: Tue, 27-Sep-2022 1:53pm PDT
Partly cloudy
Partly cloudy
 Wind from W
Wind: W 9 mph , 15 km/h
Temperature: 64°F , 18°C
Dew Point: 54°F , 12°C
Humidity: 68%
Barometer: 30.00 inHg , 1015.9 hPa
Clouds: Partly cloudy
Visibility: 10 miles , 16 km
Cloud details: Few Clouds 1200 ft
Partly cloudy 23000 ft
2022/09/27 20:53 KOAK 272053Z 27008KT 10SM FEW012 SCT230 18/12 A3000 RMK AO2 SLP159 T01830122 58012
 
KWMC - Winnemucca, Nevada, USA
Distance from station: NE 164mi, 264km
Updated: Tue, 27-Sep-2022 1:56pm PDT
Clear
Clear
 Wind from varies
Wind: varies 5 mph , 7 km/h
Temperature: 90°F , 32°C
Dew Point: 28°F , -2°C
Humidity: 11%
Barometer: 30.07 inHg , 1018.3 hPa
Clouds: Clear
Visibility: 10 miles , 16 km
2022/09/27 20:56 KWMC 272056Z AUTO VRB04KT 10SM CLR 32/M02 A3007 RMK AO2 SLP138 T03171017 57019
KDVO - Novato/Gnoss Fld, California, USA
Distance from station: WSW 165mi, 265km
Updated: Tue, 27-Sep-2022 1:35pm PDT
Clear
Clear
 Wind from NNW
Wind: NNW 9 mph , 15 km/h
Temperature: 75°F , 24°C
Dew Point: 54°F , 12°C
Humidity: 47%
Barometer: 29.98 inHg , 1015.2 hPa
Clouds: Clear
Visibility: 10 miles , 16 km
2022/09/27 20:35 KDVO 272035Z AUTO 33008KT 300V360 10SM CLR 24/12 A2998 RMK AO2
 
KO69 - Petaluma, California, USA
Distance from station: WSW 165mi, 265km
Updated: Tue, 27-Sep-2022 1:55pm PDT
Clear
Clear
 Wind from WNW
Wind: WNW 8 mph , 13 km/h, Gust: 16 mph , 26 km/h
Temperature: 70°F , 21°C
Dew Point: 52°F , 11°C
Humidity: 53%
Barometer: 30.00 inHg , 1015.9 hPa
Clouds: Clear
Visibility: 10 miles , 16 km
2022/09/27 20:55 KO69 272055Z AUTO 30007G14KT 270V340 10SM CLR 21/11 A3000 RMK A01
KRHV - San Jose/Reid, California, USA
Distance from station: SW 165mi, 265km
Updated: Tue, 27-Sep-2022 1:47pm PDT
Clear
Clear
 Wind from NNW
Wind: NNW 5 mph , 7 km/h
Temperature: 73°F , 23°C
Dew Point: 54°F , 12°C
Humidity: 50%
Barometer: 29.99 inHg , 1015.6 hPa
Clouds: Clear
Visibility: 10 miles , 16 km
2022/09/27 20:47 KRHV 272047Z 34004KT 10SM SKC 23/12 A2999
 
KSJC - San Jose, California, USA
Distance from station: SW 166mi, 267km
Updated: Tue, 27-Sep-2022 1:53pm PDT
Partly cloudy
Partly cloudy
 Wind from varies
Wind: varies 5 mph , 7 km/h
Temperature: 72°F , 22°C
Dew Point: 52°F , 11°C
Humidity: 50%
Barometer: 29.98 inHg , 1015.2 hPa
Clouds: Partly cloudy
Visibility: 10 miles , 16 km
Cloud details: Few Clouds 1600 ft
Partly cloudy 16000 ft
2022/09/27 20:53 KSJC 272053Z VRB04KT 10SM FEW016 SCT160 22/11 A2998 RMK AO2 SLP151 FU FEW016 T02170111 58016
KE16 - San Martin, California, USA
Distance from station: SW 169mi, 273km
Updated: Tue, 27-Sep-2022 1:35pm PDT
Clear
Clear
 Wind from NNW
Wind: NNW 8 mph , 13 km/h
Temperature: 77°F , 25°C
Dew Point: 48°F , 9°C
Humidity: 36%
Barometer: 29.98 inHg , 1015.2 hPa
Clouds: Clear
Visibility: 10 miles , 16 km
2022/09/27 20:35 KE16 272035Z AUTO 33007KT 310V010 10SM CLR 25/09 A2998 RMK AO2 PWINO PNO
 
KPAO - Palo Alto, California, USA
Distance from station: SW 169mi, 273km
Updated: Tue, 27-Sep-2022 1:47pm PDT
Clear
Clear
 Wind from N
Wind: N 12 mph , 19 km/h
Temperature: 66°F , 19°C
Dew Point: 55°F , 13°C
Humidity: 68%
Barometer: 30.00 inHg , 1015.9 hPa
Clouds: Clear
Visibility: 10 miles , 16 km
2022/09/27 20:47 KPAO 272047Z 35010KT 10SM SKC 19/13 A3000
KNUQ - Moffett Nas/Mtn, California, USA
Distance from station: SW 170mi, 273km
Updated: Tue, 27-Sep-2022 1:55pm PDT
Clear
Clear
 Wind from NNW
Wind: NNW 10 mph , 17 km/h
Temperature: 66°F , 19°C
Dew Point: 54°F , 12°C
Humidity: 64%
Barometer: 29.99 inHg , 1015.6 hPa
Clouds: Clear
Visibility: 9 miles , 14 km
2022/09/27 20:55 KNUQ 272055Z AUTO 34009KT 9SM CLR 19/12 A2999 RMK AO2
 
KRDD - Redding, California, USA
Distance from station: NW 171mi, 275km
Updated: Tue, 27-Sep-2022 1:53pm PDT
Clear
Clear
 Wind from SSE
Wind: SSE 7 mph , 11 km/h
Temperature: 90°F , 32°C
Dew Point: 45°F , 7°C
Humidity: 21%
Barometer: 29.91 inHg , 1012.9 hPa
Clouds: Clear
Visibility: 10 miles , 16 km
2022/09/27 20:53 KRDD 272053Z 16006KT 10SM CLR 32/07 A2991 RMK AO2 SLP121 T03170072 56013
KSTS - Santa Rosa, California, USA
Distance from station: WSW 171mi, 275km
Updated: Tue, 27-Sep-2022 1:53pm PDT
Clear
Clear
 
Temperature: 70°F , 21°C
Dew Point: 54°F , 12°C
Humidity: 57%
Barometer: 29.99 inHg , 1015.6 hPa
Clouds: Clear
Visibility: 10 miles , 16 km
2022/09/27 20:53 KSTS 272053Z 10SM CLR 21/12 A2999 RMK AO2 SLP148 T02110117 58016
 
KSQL - San Carlos Airpo, California, USA
Distance from station: SW 173mi, 278km
Updated: Tue, 27-Sep-2022 12:47pm PDT
Few Clouds
Few Clouds
 Wind from NNE
Wind: NNE 7 mph , 11 km/h
Temperature: 64°F , 18°C
Dew Point: 55°F , 13°C
Humidity: 73%
Barometer: 30.02 inHg , 1016.6 hPa
Clouds: Few Clouds
Visibility: 10 miles , 16 km
Cloud details: Few Clouds 1700 ft
2022/09/27 19:47 KSQL 271947Z 03006KT 10SM FEW017 18/13 A3002
KCVH - Hollister Muni, California, USA
Distance from station: SSW 174mi, 280km
Updated: Tue, 27-Sep-2022 1:55pm PDT
Clear
Clear
 Wind from NW
Wind: NW 7 mph , 11 km/h
Temperature: 81°F , 27°C
Dew Point: 46°F , 8°C
Humidity: 30%
Barometer: 29.96 inHg , 1014.6 hPa
Clouds: Clear
Visibility: 10 miles , 16 km
2022/09/27 20:55 KCVH 272055Z AUTO 31006KT 10SM CLR 27/08 A2996 RMK A01
 
KSFO - San Francisco, California, USA
Distance from station: SW 174mi, 280km
Updated: Tue, 27-Sep-2022 1:56pm PDT
Few Clouds
Few Clouds
 Wind from WNW
Wind: WNW 17 mph , 28 km/h, Gust: 29 mph , 46 km/h
Temperature: 66°F , 19°C
Dew Point: 54°F , 12°C
Humidity: 64%
Barometer: 29.99 inHg , 1015.6 hPa
Clouds: Few Clouds
Visibility: 10 miles , 16 km
Cloud details: Few Clouds 1800 ft
2022/09/27 20:56 KSFO 272056Z 30015G25KT 10SM FEW018 19/12 A2999 RMK AO2 SLP156 T01890122 58013
KAAT - Alturas, California, USA
Distance from station: NNW 175mi, 281km
Updated: Tue, 27-Sep-2022 1:55pm PDT
Clear
Clear
 Wind from varies
Wind: varies 5 mph , 7 km/h
Temperature: 84°F , 29°C
Dew Point: 37°F , 3°C
Humidity: 19%
Barometer: 30.06 inHg , 1017.9 hPa
Clouds: Clear
Visibility: 10 miles , 16 km
2022/09/27 20:55 KAAT 272055Z AUTO VRB04KT 10SM CLR 29/03 A3006 RMK AO2 SLP138 T02890033 58018
 
KBAM - Battle Mtn (vor), Nevada, USA
Distance from station: NE 182mi, 294km
Updated: Tue, 27-Sep-2022 1:55pm PDT
Clear
Clear
 Wind from W
Wind: W 3 mph , 6 km/h
Temperature: 90°F , 32°C
Dew Point: 28°F , -2°C
Humidity: 11%
Barometer: 30.11 inHg , 1019.6 hPa
Clouds: Clear
Visibility: 10 miles , 16 km
2022/09/27 20:55 KBAM 272055Z AUTO 28003KT 10SM CLR 32/M02 A3011 RMK AO1
KHAF - Half Moon Bay, California, USA
Distance from station: SW 184mi, 296km
Updated: Tue, 27-Sep-2022 1:55pm PDT
Clear
Clear
 Wind from NNW
Wind: NNW 17 mph , 28 km/h
Temperature: 63°F , 17°C
Dew Point: 55°F , 13°C
Humidity: 77%
Barometer: 30.01 inHg , 1016.3 hPa
Clouds: Clear
Visibility: 9 miles , 14 km
2022/09/27 20:55 KHAF 272055Z AUTO 33015KT 9SM CLR 17/13 A3001 RMK AO2
 
KWVI - Watsonville, California, USA
Distance from station: SW 184mi, 296km
Updated: Tue, 27-Sep-2022 1:53pm PDT
Clear
Clear
 Wind from W
Wind: W 8 mph , 13 km/h
Temperature: 70°F , 21°C
Dew Point: 57°F , 14°C
Humidity: 64%
Barometer: 29.98 inHg , 1015.2 hPa
Clouds: Clear
Visibility: 10 miles , 16 km
2022/09/27 20:53 KWVI 272053Z AUTO 28007KT 240V300 10SM CLR 21/14 A2998 RMK AO2 SLP150 T02110139 56018
KUKI - Ukiah, California, USA
Distance from station: W 187mi, 300km
Updated: Tue, 27-Sep-2022 1:56pm PDT
Clear
Clear
 Wind from calm
Wind: Calm
Temperature: 81°F , 27°C
Dew Point: 46°F , 8°C
Humidity: 30%
Barometer: 29.95 inHg , 1014.2 hPa
Clouds: Clear
Visibility: 10 miles , 16 km
2022/09/27 20:56 KUKI 272056Z AUTO 00000KT 10SM CLR 27/08 A2995 RMK AO2 SLP134 T02670083 58019
 
KHJO - Hanford, California, USA
Distance from station: S 188mi, 303km
Updated: Tue, 27-Sep-2022 1:53pm PDT
Clear
Clear
 Wind from varies
Wind: varies 7 mph , 11 km/h
Temperature: 93°F , 34°C
Dew Point: 54°F , 12°C
Humidity: 26%
Barometer: 29.91 inHg , 1012.9 hPa
Clouds: Clear
Visibility: 10 miles , 16 km
2022/09/27 20:53 KHJO 272053Z AUTO VRB06KT 10SM CLR 34/12 A2991 RMK AO2 SLP126 T03390117 58019
KNLC - Lemoore Nas/Reev, California, USA
Distance from station: S 188mi, 303km
Updated: Tue, 27-Sep-2022 1:56pm PDT
Few Clouds
Few Clouds
 Wind from N
Wind: N 9 mph , 15 km/h
Temperature: 93°F , 34°C
Dew Point: 54°F , 12°C
Humidity: 26%
Barometer: 29.90 inHg , 1012.5 hPa
Clouds: Few Clouds
Visibility: 10 miles , 16 km
Cloud details: Few Clouds 7000 ft
Few Clouds 21000 ft
2022/09/27 20:56 KNLC 272056Z 35008KT 10SM FEW070 FEW210 34/12 A2990 RMK AO2 SLP125 RH/25 T03390117 58019
 
KVIS - Visalia Muni, California, USA
Distance from station: S 189mi, 304km
Updated: Tue, 27-Sep-2022 1:56pm PDT
Clear
Clear
 Wind from WSW
Wind: WSW 5 mph , 7 km/h
Temperature: 91°F , 33°C
Dew Point: 57°F , 14°C
Humidity: 32%
Barometer: 29.91 inHg , 1012.9 hPa
Clouds: Clear
Visibility: 9 miles , 14 km
2022/09/27 20:56 KVIS 272056Z AUTO 25004KT 9SM CLR 33/14 A2991 RMK AO2 SLP129 T03330144 58019
KSNS - Salinas, California, USA
Distance from station: SSW 193mi, 311km
Updated: Tue, 27-Sep-2022 1:53pm PDT
Clear
Clear
 Wind from WNW
Wind: WNW 14 mph , 22 km/h
Temperature: 73°F , 23°C
Dew Point: 57°F , 14°C
Humidity: 57%
Barometer: 29.96 inHg , 1014.6 hPa
Clouds: Clear
Visibility: 8 miles , 13 km
2022/09/27 20:53 KSNS 272053Z 29012KT 8SM CLR 23/14 A2996 RMK AO2 SLP154 T02330139 56020
 
K05U - Eureka, Nevada, USA
Distance from station: ENE 203mi, 326km
Updated: Tue, 27-Sep-2022 1:55pm PDT
Clear
Clear
 Wind from ENE
Wind: ENE 5 mph , 7 km/h
Temperature: 84°F , 29°C
Dew Point: 16°F , -9°C
Humidity: 8%
Barometer: 30.23 inHg , 1023.7 hPa
Clouds: Clear
Visibility: 10 miles , 16 km
2022/09/27 20:55 K05U 272055Z AUTO 06004KT 10SM CLR 29/M09 A3023 RMK A01
KP68 - Eureka, Nevada, USA
Distance from station: ENE 203mi, 326km
Updated: Tue, 27-Sep-2022 1:53pm PDT

 Wind from ENE
Wind: ENE 5 mph , 7 km/h
Temperature: 81°F , 27°C
Dew Point: 16°F , -9°C
Humidity: 9%
Barometer: 30.21 inHg , 1023 hPa
2022/09/27 20:53 KP68 272053Z AUTO 06004KT 27/M09 A3021 RMK AO1 SLP157 T02721089 58016
 
KMRY - Monterey, California, USA
Distance from station: SW 206mi, 331km
Updated: Tue, 27-Sep-2022 1:54pm PDT
Clear
Clear
 Wind from NW
Wind: NW 10 mph , 17 km/h
Temperature: 63°F , 17°C
Dew Point: 54°F , 12°C
Humidity: 73%
Barometer: 30.00 inHg , 1015.9 hPa
Clouds: Clear
Visibility: 10 miles , 16 km
2022/09/27 20:54 KMRY 272054Z 31009KT 10SM CLR 17/12 A3000 RMK AO2 SLP170 T01670122 56010
KO54 - Weaverville, California, USA
Distance from station: NW 207mi, 332km
Updated: Wed, 12-Aug-2020 11:15am PDT
NOT Current
Clear
Clear
 Wind from S
Wind: S 3 mph , 6 km/h
Temperature: 77°F , 25°C
Dew Point: 41°F , 5°C
Humidity: 28%
Barometer: 30.01 inHg , 1016.3 hPa
Clouds: Clear
Visibility: 10 miles , 16 km
2020/08/12 18:15 KO54 121815Z AUTO 17003KT 10SM CLR 25/05 A3001 RMK AO1
 
KO86 - Trinity Center, California, USA
Distance from station: NW 207mi, 333km
Updated: Tue, 05-Apr-2022 12:30pm PDT
NOT Current
Clear
Clear
 Wind from calm
Wind: Calm
Temperature: 61°F , 16°C
Dew Point: 39°F , 4°C
Humidity: 45%
Barometer: 32.59 inHg , 1103.6 hPa
Clouds: Clear
Visibility: 10 miles , 16 km
2022/04/05 19:30 KO86 051930Z AUTO 00000KT 10SM CLR 16/04 A3259 RMK A01
KMHS - Mount Shasta, California, USA
Distance from station: NW 209mi, 336km
Updated: Tue, 27-Sep-2022 1:56pm PDT
Clear
Clear
 Wind from calm
Wind: Calm
Temperature: 77°F , 25°C
Dew Point: 46°F , 8°C
Humidity: 34%
Barometer: 30.06 inHg , 1017.9 hPa
Clouds: Clear
Visibility: 10 miles , 16 km
2022/09/27 20:56 KMHS 272056Z AUTO 00000KT 10SM CLR 25/08 A3006 RMK AO2 SLP170 T02500078 56006
 
KPTV - Porterville, California, USA
Distance from station: S 212mi, 341km
Updated: Tue, 27-Sep-2022 1:56pm PDT
Clear
Clear
 Wind from WNW
Wind: WNW 6 mph , 9 km/h
Temperature: 93°F , 34°C
Dew Point: 59°F , 15°C
Humidity: 32%
Barometer: 29.91 inHg , 1012.9 hPa
Clouds: Clear
Visibility: 10 miles , 16 km
2022/09/27 20:56 KPTV 272056Z AUTO 30005KT 10SM CLR 34/15 A2991 RMK AO2 SLP125 T03390150 58019
KLKV - Lakeview, Oregon, USA
Distance from station: N 219mi, 353km
Updated: Tue, 27-Sep-2022 1:53pm PDT
Clear
Clear
 Wind from S
Wind: S 15 mph , 24 km/h
Temperature: 82°F , 28°C
Dew Point: 34°F , 1°C
Humidity: 17%
Barometer: 30.09 inHg , 1019 hPa
Clouds: Clear
Visibility: 10 miles , 16 km
2022/09/27 20:53 KLKV 272053Z AUTO 18013KT 10SM CLR 28/01 A3009 RMK AO2 SLP158 T02830006 56016
 
KSIY - Montague/Siskiyo, California, USA
Distance from station: NW 237mi, 382km
Updated: Tue, 27-Sep-2022 1:53pm PDT
Clear
Clear
 Wind from S
Wind: S 10 mph , 17 km/h, Gust: 20 mph , 31 km/h
Temperature: 88°F , 31°C
Dew Point: 41°F , 5°C
Humidity: 19%
Barometer: 29.96 inHg , 1014.6 hPa
Clouds: Clear
Visibility: 10 miles , 16 km
2022/09/27 20:53 KSIY 272053Z AUTO 18009G17KT 130V220 10SM CLR 31/05 A2996 RMK AO2 SLP131 T03110050 56018
KPRB - Paso Robles, California, USA
Distance from station: SSW 238mi, 383km
Updated: Tue, 27-Sep-2022 1:53pm PDT
Clear
Clear
 Wind from varies
Wind: varies 6 mph , 9 km/h
Temperature: 90°F , 32°C
Dew Point: 52°F , 11°C
Humidity: 27%
Barometer: 29.96 inHg , 1014.6 hPa
Clouds: Clear
Visibility: 10 miles , 16 km
2022/09/27 20:53 KPRB 272053Z AUTO VRB05KT 10SM CLR 32/11 A2996 RMK AO2 SLP137 T03170106 58025
 
KLMT - Klamath Falls, Oregon, USA
Distance from station: NNW 239mi, 385km
Updated: Tue, 27-Sep-2022 1:53pm PDT
Clear
Clear
 Wind from SE
Wind: SE 3 mph , 6 km/h
Temperature: 79°F , 26°C
Dew Point: 39°F , 4°C
Humidity: 24%
Barometer: 30.04 inHg , 1017.3 hPa
Clouds: Clear
Visibility: 10 miles , 16 km
2022/09/27 20:53 KLMT 272053Z 14003KT 10SM CLR 26/04 A3004 RMK AO2 SLP137 T02610044 58016
KEKO - Elko, Nevada, USA
Distance from station: ENE 242mi, 390km
Updated: Tue, 27-Sep-2022 1:56pm PDT
Clear
Clear
 Wind from WSW
Wind: WSW 10 mph , 17 km/h, Gust: 20 mph , 31 km/h
Temperature: 88°F , 31°C
Dew Point: 23°F , -5°C
Humidity: 9%
Barometer: 30.14 inHg , 1020.7 hPa
Clouds: Clear
Visibility: 10 miles , 16 km
2022/09/27 20:56 KEKO 272056Z AUTO 24009G17KT 10SM CLR 31/M05 A3014 RMK AO2 SLP152 T03111050 58024
 
KBFL - Bakersfield, California, USA
Distance from station: S 252mi, 405km
Updated: Tue, 27-Sep-2022 1:54pm PDT
Clear
Clear
 Wind from W
Wind: W 5 mph , 7 km/h
Temperature: 90°F , 32°C
Dew Point: 55°F , 13°C
Humidity: 31%
Barometer: 29.90 inHg , 1012.5 hPa
Clouds: Clear
Visibility: 8 miles , 13 km
2022/09/27 20:54 KBFL 272054Z 26004KT 8SM CLR 32/13 A2990 RMK AO2 SLP117 T03220133 58020
KFOT - Fortuna, California, USA
Distance from station: WNW 256mi, 413km
Updated: Wed, 14-Sep-2022 11:20am PDT
NOT Current
Partly cloudy
Partly cloudy
 Wind from W
Wind: W 7 mph , 11 km/h
Temperature: 64°F , 18°C
Dew Point: 54°F , 12°C
Humidity: 68%
Barometer: 29.95 inHg , 1014.2 hPa
Clouds: Partly cloudy
Visibility: 10 miles , 16 km
Cloud details: Partly cloudy 5500 ft
2022/09/14 18:20 KFOT 141820Z AUTO 28006KT 10SM SCT055 18/12 A2995 RMK AO1
 
KNID - China Lake (naf), California, USA
Distance from station: SSE 259mi, 417km
Updated: Tue, 27-Sep-2022 1:56pm PDT
Few Clouds
Few Clouds
 Wind from ESE
Wind: ESE 8 mph , 13 km/h
Temperature: 99°F , 37°C
Dew Point: 28°F , -2°C
Humidity: 8%
Barometer: 29.95 inHg , 1014.2 hPa
Clouds: Few Clouds
Visibility: 10 miles , 16 km
Cloud details: Few Clouds 10000 ft
Few Clouds 25000 ft
2022/09/27 20:56 KNID 272056Z 11007KT 10SM FEW100 FEW250 37/M02 A2995 RMK AO2 SLP118 6//// T03721022 58024 PNO $
KDRA - Desert R/Mercury, Nevada, USA
Distance from station: SE 262mi, 421km
Updated: Tue, 27-Sep-2022 1:53pm PDT
Clear
Clear
 Wind from calm
Wind: Calm
Temperature: 93°F , 34°C
Dew Point: 28°F , -2°C
Humidity: 10%
Barometer: 30.04 inHg , 1017.3 hPa
Clouds: Clear
Visibility: 10 miles , 16 km
2022/09/27 20:53 KDRA 272053Z AUTO 00000KT 10SM CLR 34/M02 A3004 RMK AO2 SLP125 T03391017 58017
 
KELY - Ely, Nevada, USA
Distance from station: E 262mi, 421km
Updated: Tue, 27-Sep-2022 1:53pm PDT
Partly cloudy
Partly cloudy
 Wind from SSE
Wind: SSE 15 mph , 24 km/h, Gust: 26 mph , 43 km/h
Temperature: 81°F , 27°C
Dew Point: 28°F , -2°C
Humidity: 15%
Barometer: 30.24 inHg , 1024 hPa
Clouds: Partly cloudy
Visibility: 10 miles , 16 km
Cloud details: Partly cloudy 11000 ft
2022/09/27 20:53 KELY 272053Z AUTO 15013G23KT 10SM SCT110 27/M02 A3024 RMK AO2 SLP157 T02721017 57018
KREO - Rome, Oregon, USA
Distance from station: NNE 263mi, 424km
Updated: Tue, 27-Sep-2022 1:52pm PDT

 Wind from NW
Wind: NW 5 mph , 7 km/h
Temperature: 91°F , 33°C
Dew Point: 36°F , 2°C
Humidity: 14%
Barometer: 30.02 inHg , 1016.6 hPa
2022/09/27 20:52 KREO 272052Z AUTO 32004KT 33/02 A3002 RMK AO1 SLP126 T03330017 58020
 
KACV - Arcata/Eureka, California, USA
Distance from station: WNW 268mi, 431km
Updated: Tue, 27-Sep-2022 1:53pm PDT
Overcast
Overcast
 Wind from calm
Wind: Calm
Temperature: 59°F , 15°C
Dew Point: 54°F , 12°C
Humidity: 82%
Barometer: 30.03 inHg , 1016.9 hPa
Clouds: Overcast
Visibility: 10 miles , 16 km
Cloud details: Overcast 1300 ft
2022/09/27 20:53 KACV 272053Z AUTO 00000KT 10SM OVC013 15/12 A3003 RMK AO2 SLP172 T01500122 58001
KSBP - San Luis Obispo, California, USA
Distance from station: S 268mi, 431km
Updated: Tue, 27-Sep-2022 1:56pm PDT
Clear
Clear
 Wind from NW
Wind: NW 16 mph , 26 km/h
Temperature: 79°F , 26°C
Dew Point: 57°F , 14°C
Humidity: 48%
Barometer: 29.91 inHg , 1012.9 hPa
Clouds: Clear
Visibility: 10 miles , 16 km
2022/09/27 20:56 KSBP 272056Z 31014KT 10SM CLR 26/14 A2991 RMK AO2 SLP124 T02560144 58017
 
KINS - Indian Springs, Nevada, USA
Distance from station: SE 279mi, 449km
Updated: Tue, 27-Sep-2022 1:56pm PDT
Clear
Clear
 Wind from WNW
Wind: WNW 6 mph , 9 km/h
Temperature: 93°F , 34°C
Dew Point: 27°F , -3°C
Humidity: 9%
Barometer: 30.02 inHg , 1016.6 hPa
Clouds: Clear
Visibility: 10 miles , 16 km
2022/09/27 20:56 KINS 272056Z AUTO 30005KT 10SM CLR 34/M03 A3002 RMK AO2 SLP121 T03401034 57023 $
KTSP - Tehachapi, California, USA
Distance from station: SSE 279mi, 449km
Updated: Tue, 27-Sep-2022 1:55pm PDT
Clear
Clear
 Wind from NW
Wind: NW 15 mph , 24 km/h
Temperature: 86°F , 30°C
Dew Point: 43°F , 6°C
Humidity: 22%
Barometer: 30.12 inHg , 1020 hPa
Clouds: Clear
Visibility: 10 miles , 16 km
2022/09/27 20:55 KTSP 272055Z AUTO 32013KT 10SM CLR 30/06 A3012 RMK AO2
 
KMFR - Medford, Oregon, USA
Distance from station: NW 284mi, 457km
Updated: Tue, 27-Sep-2022 1:53pm PDT
Clear
Clear
 Wind from WNW
Wind: WNW 6 mph , 9 km/h
Temperature: 88°F , 31°C
Dew Point: 48°F , 9°C
Humidity: 25%
Barometer: 29.88 inHg , 1011.9 hPa
Clouds: Clear
Visibility: 10 miles , 16 km
2022/09/27 20:53 KMFR 272053Z 30005KT 10SM CLR 31/09 A2988 RMK AO2 SLP107 T03060089 58021
KMHV - Mojave, California, USA
Distance from station: SSE 288mi, 463km
Updated: Tue, 27-Sep-2022 2:00pm PDT
Clear
Clear
 Wind from N
Wind: N 0 mph , 0 km/h, Gust: 16 mph , 26 km/h
Temperature: 93°F , 34°C
Dew Point: 30°F , -1°C
Humidity: 11%
Barometer: 30.01 inHg , 1016.3 hPa
Clouds: Clear
Visibility: 10 miles , 16 km
2022/09/27 21:00 KMHV 272100Z AUTO 00000G14KT 10SM CLR 34/M01 A3001 RMK A01
 
KSMX - Santa Maria, California, USA
Distance from station: S 289mi, 465km
Updated: Tue, 27-Sep-2022 1:51pm PDT
Few Clouds
Few Clouds
 Wind from WNW
Wind: WNW 9 mph , 15 km/h
Temperature: 66°F , 19°C
Dew Point: 59°F , 15°C
Humidity: 78%
Barometer: 29.93 inHg , 1013.5 hPa
Clouds: Few Clouds
Visibility: 8 miles , 13 km
Cloud details: Few Clouds 5000 ft
2022/09/27 20:51 KSMX 272051Z 30008KT 8SM FEW050 19/15 A2993 RMK AO2 SLP137 T01940150 56014
K9L2 - Edwards N-Aux, California, USA
Distance from station: SSE 299mi, 482km
Updated: Tue, 27-Sep-2022 12:58pm PDT
Clear
Clear
 Wind from calm
Wind: Calm
Temperature: 93°F , 34°C
Dew Point: 34°F , 1°C
Humidity: 12%
Barometer: 29.98 inHg , 1015.2 hPa
Clouds: Clear
Visibility: 9 miles , 14 km
2022/09/27 19:58 K9L2 271958Z AUTO 00000KT 9SM CLR 34/01 A2998 RMK AO2 SLP127 T03400011 $
Honor Flight NV - Honoring all of our Veterans CoCoRaHS (Community Collaborative Rain, Hail and Snow Network) Station Number: NV-DG-2 Live Lightning Map - USA Reno Skywarn Spotter ID: DO21 AlertID Southwestern Weather Network Carson Valley Community Food Closet - providing for the needs of our community



(Click on the Flag Counter logo below for details in new browser tab)
Flag Counter